sensor_id;sensor_type;location;lat;lon;timestamp;P1;durP1;ratioP1;P2;durP2;ratioP2
12459;SDS011;6295;49.452;8.466;2022-09-03T00:00:01;3.17;;;2.17;;
12459;SDS011;6295;49.452;8.466;2022-09-03T00:04:09;2.30;;;2.10;;
12459;SDS011;6295;49.452;8.466;2022-09-03T00:08:19;2.47;;;2.17;;
12459;SDS011;6295;49.452;8.466;2022-09-03T00:12:26;2.27;;;2.07;;
12459;SDS011;6295;49.452;8.466;2022-09-03T00:16:33;2.40;;;2.20;;
12459;SDS011;6295;49.452;8.466;2022-09-03T00:20:48;2.20;;;2.10;;
12459;SDS011;6295;49.452;8.466;2022-09-03T00:24:54;2.57;;;2.37;;
12459;SDS011;6295;49.452;8.466;2022-09-03T00:29:01;2.50;;;2.30;;
12459;SDS011;6295;49.452;8.466;2022-09-03T00:33:07;2.53;;;2.20;;
12459;SDS011;6295;49.452;8.466;2022-09-03T00:37:15;2.10;;;2.00;;
12459;SDS011;6295;49.452;8.466;2022-09-03T00:41:20;1.90;;;1.80;;
12459;SDS011;6295;49.452;8.466;2022-09-03T00:45:31;2.23;;;2.03;;
12459;SDS011;6295;49.452;8.466;2022-09-03T00:49:41;3.20;;;1.90;;
12459;SDS011;6295;49.452;8.466;2022-09-03T00:54:05;1.90;;;1.80;;
12459;SDS011;6295;49.452;8.466;2022-09-03T00:58:20;2.80;;;1.80;;
12459;SDS011;6295;49.452;8.466;2022-09-03T01:02:39;1.60;;;1.50;;
12459;SDS011;6295;49.452;8.466;2022-09-03T01:06:53;2.00;;;1.80;;
12459;SDS011;6295;49.452;8.466;2022-09-03T01:11:04;1.70;;;1.60;;
12459;SDS011;6295;49.452;8.466;2022-09-03T01:15:19;1.83;;;1.70;;
12459;SDS011;6295;49.452;8.466;2022-09-03T01:19:39;1.83;;;1.63;;
12459;SDS011;6295;49.452;8.466;2022-09-03T01:24:12;3.30;;;1.43;;
12459;SDS011;6295;49.452;8.466;2022-09-03T01:28:40;1.93;;;1.50;;
12459;SDS011;6295;49.452;8.466;2022-09-03T01:32:56;3.10;;;1.53;;
12459;SDS011;6295;49.452;8.466;2022-09-03T01:37:05;1.73;;;1.63;;
12459;SDS011;6295;49.452;8.466;2022-09-03T01:41:17;1.87;;;1.50;;
12459;SDS011;6295;49.452;8.466;2022-09-03T01:45:51;1.97;;;1.77;;
12459;SDS011;6295;49.452;8.466;2022-09-03T01:50:01;2.20;;;1.77;;
12459;SDS011;6295;49.452;8.466;2022-09-03T01:58:43;1.53;;;1.43;;
12459;SDS011;6295;49.452;8.466;2022-09-03T02:02:51;1.77;;;1.67;;
12459;SDS011;6295;49.452;8.466;2022-09-03T02:06:55;1.60;;;1.50;;
12459;SDS011;6295;49.452;8.466;2022-09-03T02:10:59;2.53;;;1.50;;
12459;SDS011;6295;49.452;8.466;2022-09-03T02:15:03;1.43;;;1.33;;
12459;SDS011;6295;49.452;8.466;2022-09-03T02:19:13;1.73;;;1.53;;
12459;SDS011;6295;49.452;8.466;2022-09-03T02:23:18;1.60;;;1.50;;
12459;SDS011;6295;49.452;8.466;2022-09-03T02:27:20;1.83;;;1.50;;
12459;SDS011;6295;49.452;8.466;2022-09-03T02:31:22;2.37;;;1.50;;
12459;SDS011;6295;49.452;8.466;2022-09-03T02:35:26;2.03;;;1.40;;
12459;SDS011;6295;49.452;8.466;2022-09-03T02:39:28;1.60;;;1.50;;
12459;SDS011;6295;49.452;8.466;2022-09-03T02:43:32;1.57;;;1.47;;
12459;SDS011;6295;49.452;8.466;2022-09-03T02:47:39;2.07;;;1.87;;
12459;SDS011;6295;49.452;8.466;2022-09-03T02:51:46;1.80;;;1.40;;
12459;SDS011;6295;49.452;8.466;2022-09-03T02:55:48;1.63;;;1.53;;
12459;SDS011;6295;49.452;8.466;2022-09-03T02:59:50;1.60;;;1.50;;
12459;SDS011;6295;49.452;8.466;2022-09-03T03:03:52;2.03;;;1.63;;
12459;SDS011;6295;49.452;8.466;2022-09-03T03:07:56;1.63;;;1.53;;
12459;SDS011;6295;49.452;8.466;2022-09-03T03:11:58;1.77;;;1.67;;
12459;SDS011;6295;49.452;8.466;2022-09-03T03:16:00;1.70;;;1.60;;
12459;SDS011;6295;49.452;8.466;2022-09-03T03:20:06;2.27;;;1.50;;
12459;SDS011;6295;49.452;8.466;2022-09-03T03:24:10;1.77;;;1.63;;
12459;SDS011;6295;49.452;8.466;2022-09-03T03:28:12;3.53;;;1.77;;
12459;SDS011;6295;49.452;8.466;2022-09-03T03:32:14;1.80;;;1.70;;
12459;SDS011;6295;49.452;8.466;2022-09-03T03:36:17;2.07;;;1.70;;
12459;SDS011;6295;49.452;8.466;2022-09-03T03:40:20;1.50;;;1.40;;
12459;SDS011;6295;49.452;8.466;2022-09-03T03:44:22;2.30;;;1.60;;
12459;SDS011;6295;49.452;8.466;2022-09-03T03:48:24;2.07;;;1.73;;
12459;SDS011;6295;49.452;8.466;2022-09-03T03:52:27;2.60;;;1.70;;
12459;SDS011;6295;49.452;8.466;2022-09-03T03:56:30;2.07;;;1.57;;
12459;SDS011;6295;49.452;8.466;2022-09-03T04:00:32;1.80;;;1.70;;
12459;SDS011;6295;49.452;8.466;2022-09-03T04:04:37;1.83;;;1.63;;
12459;SDS011;6295;49.452;8.466;2022-09-03T04:08:40;1.80;;;1.70;;
12459;SDS011;6295;49.452;8.466;2022-09-03T04:12:45;1.97;;;1.87;;
12459;SDS011;6295;49.452;8.466;2022-09-03T04:16:47;2.40;;;1.60;;
12459;SDS011;6295;49.452;8.466;2022-09-03T04:20:50;1.60;;;1.50;;
12459;SDS011;6295;49.452;8.466;2022-09-03T04:24:52;3.43;;;1.70;;
12459;SDS011;6295;49.452;8.466;2022-09-03T04:28:56;1.77;;;1.60;;
12459;SDS011;6295;49.452;8.466;2022-09-03T04:33:00;2.87;;;1.70;;
12459;SDS011;6295;49.452;8.466;2022-09-03T04:37:02;2.10;;;1.60;;
12459;SDS011;6295;49.452;8.466;2022-09-03T04:41:04;1.93;;;1.80;;
12459;SDS011;6295;49.452;8.466;2022-09-03T04:45:09;2.10;;;1.90;;
12459;SDS011;6295;49.452;8.466;2022-09-03T04:49:14;2.20;;;1.80;;
12459;SDS011;6295;49.452;8.466;2022-09-03T04:53:16;1.90;;;1.70;;
12459;SDS011;6295;49.452;8.466;2022-09-03T04:57:19;2.47;;;1.70;;
12459;SDS011;6295;49.452;8.466;2022-09-03T05:01:23;4.50;;;1.80;;
12459;SDS011;6295;49.452;8.466;2022-09-03T05:05:27;1.87;;;1.77;;
12459;SDS011;6295;49.452;8.466;2022-09-03T05:09:29;2.27;;;2.00;;
12459;SDS011;6295;49.452;8.466;2022-09-03T05:13:32;1.93;;;1.83;;
12459;SDS011;6295;49.452;8.466;2022-09-03T05:17:37;2.20;;;2.00;;
12459;SDS011;6295;49.452;8.466;2022-09-03T05:21:39;2.70;;;1.80;;
12459;SDS011;6295;49.452;8.466;2022-09-03T05:25:42;2.83;;;1.90;;
12459;SDS011;6295;49.452;8.466;2022-09-03T05:29:44;2.17;;;1.97;;
12459;SDS011;6295;49.452;8.466;2022-09-03T05:33:48;3.00;;;1.80;;
12459;SDS011;6295;49.452;8.466;2022-09-03T05:37:53;1.90;;;1.80;;
12459;SDS011;6295;49.452;8.466;2022-09-03T05:41:56;2.50;;;2.30;;
12459;SDS011;6295;49.452;8.466;2022-09-03T05:45:58;2.90;;;1.87;;
12459;SDS011;6295;49.452;8.466;2022-09-03T05:50:02;2.10;;;1.90;;
12459;SDS011;6295;49.452;8.466;2022-09-03T05:54:05;2.63;;;2.20;;
12459;SDS011;6295;49.452;8.466;2022-09-03T05:58:08;2.00;;;1.80;;
12459;SDS011;6295;49.452;8.466;2022-09-03T06:02:10;1.73;;;1.63;;
12459;SDS011;6295;49.452;8.466;2022-09-03T06:06:14;1.87;;;1.77;;
12459;SDS011;6295;49.452;8.466;2022-09-03T06:10:16;2.20;;;2.00;;
12459;SDS011;6295;49.452;8.466;2022-09-03T06:14:18;2.43;;;2.20;;
12459;SDS011;6295;49.452;8.466;2022-09-03T06:18:21;2.30;;;1.80;;
12459;SDS011;6295;49.452;8.466;2022-09-03T06:22:24;2.10;;;1.90;;
12459;SDS011;6295;49.452;8.466;2022-09-03T06:26:29;1.90;;;1.80;;
12459;SDS011;6295;49.452;8.466;2022-09-03T06:30:31;2.43;;;2.00;;
12459;SDS011;6295;49.452;8.466;2022-09-03T06:34:33;2.83;;;2.10;;
12459;SDS011;6295;49.452;8.466;2022-09-03T06:38:36;3.20;;;2.17;;
12459;SDS011;6295;49.452;8.466;2022-09-03T06:42:39;4.50;;;2.50;;
12459;SDS011;6295;49.452;8.466;2022-09-03T06:46:41;2.53;;;2.33;;
12459;SDS011;6295;49.452;8.466;2022-09-03T06:50:43;3.30;;;2.40;;
12459;SDS011;6295;49.452;8.466;2022-09-03T06:54:54;3.80;;;2.60;;
12459;SDS011;6295;49.452;8.466;2022-09-03T06:58:57;4.53;;;2.90;;
12459;SDS011;6295;49.452;8.466;2022-09-03T07:03:01;3.97;;;2.80;;
12459;SDS011;6295;49.452;8.466;2022-09-03T07:07:05;2.90;;;2.60;;
12459;SDS011;6295;49.452;8.466;2022-09-03T07:11:14;2.77;;;2.57;;
12459;SDS011;6295;49.452;8.466;2022-09-03T07:15:19;3.47;;;2.70;;
12459;SDS011;6295;49.452;8.466;2022-09-03T07:19:21;3.33;;;3.03;;
12459;SDS011;6295;49.452;8.466;2022-09-03T07:23:23;3.63;;;2.93;;
12459;SDS011;6295;49.452;8.466;2022-09-03T07:27:26;3.20;;;2.90;;
12459;SDS011;6295;49.452;8.466;2022-09-03T07:31:30;3.07;;;2.77;;
12459;SDS011;6295;49.452;8.466;2022-09-03T07:35:35;3.10;;;2.90;;
12459;SDS011;6295;49.452;8.466;2022-09-03T07:39:37;3.00;;;2.70;;
12459;SDS011;6295;49.452;8.466;2022-09-03T07:43:42;3.37;;;3.00;;
12459;SDS011;6295;49.452;8.466;2022-09-03T07:47:46;3.43;;;3.13;;
12459;SDS011;6295;49.452;8.466;2022-09-03T07:51:49;3.80;;;3.40;;
12459;SDS011;6295;49.452;8.466;2022-09-03T07:55:53;3.50;;;3.20;;
12459;SDS011;6295;49.452;8.466;2022-09-03T07:59:57;4.13;;;3.50;;
12459;SDS011;6295;49.452;8.466;2022-09-03T08:03:59;3.90;;;3.50;;
12459;SDS011;6295;49.452;8.466;2022-09-03T08:08:03;6.83;;;3.43;;
12459;SDS011;6295;49.452;8.466;2022-09-03T08:12:06;4.20;;;3.50;;
12459;SDS011;6295;49.452;8.466;2022-09-03T08:16:10;4.10;;;3.70;;
12459;SDS011;6295;49.452;8.466;2022-09-03T08:20:13;4.00;;;3.57;;
12459;SDS011;6295;49.452;8.466;2022-09-03T08:24:16;4.30;;;3.90;;
12459;SDS011;6295;49.452;8.466;2022-09-03T08:28:20;4.10;;;3.70;;
12459;SDS011;6295;49.452;8.466;2022-09-03T08:32:24;4.93;;;3.83;;
12459;SDS011;6295;49.452;8.466;2022-09-03T08:36:26;4.70;;;4.23;;
12459;SDS011;6295;49.452;8.466;2022-09-03T08:40:30;4.50;;;4.00;;
12459;SDS011;6295;49.452;8.466;2022-09-03T08:44:36;4.87;;;4.20;;
12459;SDS011;6295;49.452;8.466;2022-09-03T08:48:47;4.43;;;4.00;;
12459;SDS011;6295;49.452;8.466;2022-09-03T08:52:50;4.90;;;4.20;;
12459;SDS011;6295;49.452;8.466;2022-09-03T08:56:57;4.30;;;3.90;;
12459;SDS011;6295;49.452;8.466;2022-09-03T09:01:03;7.70;;;4.47;;
12459;SDS011;6295;49.452;8.466;2022-09-03T09:05:16;4.23;;;3.83;;
12459;SDS011;6295;49.452;8.466;2022-09-03T09:09:22;5.63;;;3.93;;
12459;SDS011;6295;49.452;8.466;2022-09-03T09:13:32;4.27;;;3.90;;
12459;SDS011;6295;49.452;8.466;2022-09-03T09:17:47;5.03;;;4.10;;
12459;SDS011;6295;49.452;8.466;2022-09-03T09:21:58;4.70;;;4.20;;
12459;SDS011;6295;49.452;8.466;2022-09-03T09:26:05;5.60;;;4.37;;
12459;SDS011;6295;49.452;8.466;2022-09-03T09:30:10;4.40;;;4.00;;
12459;SDS011;6295;49.452;8.466;2022-09-03T09:34:17;5.10;;;4.03;;
12459;SDS011;6295;49.452;8.466;2022-09-03T09:38:27;3.60;;;3.30;;
12459;SDS011;6295;49.452;8.466;2022-09-03T09:42:30;3.60;;;3.30;;
12459;SDS011;6295;49.452;8.466;2022-09-03T09:46:34;4.23;;;3.80;;
12459;SDS011;6295;49.452;8.466;2022-09-03T09:50:37;5.27;;;3.80;;
12459;SDS011;6295;49.452;8.466;2022-09-03T09:54:42;3.83;;;3.53;;
12459;SDS011;6295;49.452;8.466;2022-09-03T09:58:46;4.03;;;3.70;;
12459;SDS011;6295;49.452;8.466;2022-09-03T10:02:48;4.00;;;3.70;;
12459;SDS011;6295;49.452;8.466;2022-09-03T10:06:52;3.87;;;3.57;;
12459;SDS011;6295;49.452;8.466;2022-09-03T10:10:57;3.97;;;3.07;;
12459;SDS011;6295;49.452;8.466;2022-09-03T10:15:01;3.97;;;3.53;;
12459;SDS011;6295;49.452;8.466;2022-09-03T10:19:10;3.60;;;3.30;;
12459;SDS011;6295;49.452;8.466;2022-09-03T10:23:19;3.70;;;3.40;;
12459;SDS011;6295;49.452;8.466;2022-09-03T10:27:28;3.87;;;3.57;;
12459;SDS011;6295;49.452;8.466;2022-09-03T10:31:40;3.77;;;3.47;;
12459;SDS011;6295;49.452;8.466;2022-09-03T10:35:49;3.60;;;3.30;;
12459;SDS011;6295;49.452;8.466;2022-09-03T10:40:12;3.57;;;3.27;;
12459;SDS011;6295;49.452;8.466;2022-09-03T10:44:38;3.80;;;3.50;;
12459;SDS011;6295;49.452;8.466;2022-09-03T10:49:06;3.80;;;3.50;;
12459;SDS011;6295;49.452;8.466;2022-09-03T10:53:11;3.23;;;3.03;;
12459;SDS011;6295;49.452;8.466;2022-09-03T10:57:32;3.60;;;3.30;;
12459;SDS011;6295;49.452;8.466;2022-09-03T11:01:44;3.67;;;3.37;;
12459;SDS011;6295;49.452;8.466;2022-09-03T11:05:57;3.80;;;3.50;;
12459;SDS011;6295;49.452;8.466;2022-09-03T11:10:09;3.87;;;3.57;;
12459;SDS011;6295;49.452;8.466;2022-09-03T11:14:17;4.83;;;4.43;;
12459;SDS011;6295;49.452;8.466;2022-09-03T11:18:28;4.43;;;3.90;;
12459;SDS011;6295;49.452;8.466;2022-09-03T11:22:35;5.40;;;4.40;;
12459;SDS011;6295;49.452;8.466;2022-09-03T11:26:38;4.97;;;4.53;;
12459;SDS011;6295;49.452;8.466;2022-09-03T11:30:47;5.07;;;4.67;;
12459;SDS011;6295;49.452;8.466;2022-09-03T11:34:57;4.73;;;4.33;;
12459;SDS011;6295;49.452;8.466;2022-09-03T11:39:00;5.47;;;4.93;;
12459;SDS011;6295;49.452;8.466;2022-09-03T11:43:24;4.80;;;4.40;;
12459;SDS011;6295;49.452;8.466;2022-09-03T11:47:36;3.90;;;3.60;;
12459;SDS011;6295;49.452;8.466;2022-09-03T11:51:41;3.80;;;3.50;;
12459;SDS011;6295;49.452;8.466;2022-09-03T11:55:48;3.13;;;2.93;;
12459;SDS011;6295;49.452;8.466;2022-09-03T12:00:05;3.77;;;3.37;;
12459;SDS011;6295;49.452;8.466;2022-09-03T12:04:12;3.30;;;3.00;;
12459;SDS011;6295;49.452;8.466;2022-09-03T12:08:21;3.67;;;2.80;;
12459;SDS011;6295;49.452;8.466;2022-09-03T12:13:01;3.00;;;2.80;;
12459;SDS011;6295;49.452;8.466;2022-09-03T12:17:14;2.57;;;2.37;;
12459;SDS011;6295;49.452;8.466;2022-09-03T12:21:24;2.80;;;2.30;;
12459;SDS011;6295;49.452;8.466;2022-09-03T12:25:28;9.40;;;3.10;;
12459;SDS011;6295;49.452;8.466;2022-09-03T12:29:30;4.63;;;3.00;;
12459;SDS011;6295;49.452;8.466;2022-09-03T12:33:33;2.50;;;2.30;;
12459;SDS011;6295;49.452;8.466;2022-09-03T12:37:35;2.53;;;2.33;;
12459;SDS011;6295;49.452;8.466;2022-09-03T12:41:46;2.87;;;2.17;;
12459;SDS011;6295;49.452;8.466;2022-09-03T12:45:57;2.10;;;2.00;;
12459;SDS011;6295;49.452;8.466;2022-09-03T12:50:03;2.50;;;2.30;;
12459;SDS011;6295;49.452;8.466;2022-09-03T12:54:07;2.37;;;2.17;;
12459;SDS011;6295;49.452;8.466;2022-09-03T12:58:17;2.60;;;2.40;;
12459;SDS011;6295;49.452;8.466;2022-09-03T13:02:22;3.30;;;2.63;;
12459;SDS011;6295;49.452;8.466;2022-09-03T13:06:30;3.50;;;2.70;;
12459;SDS011;6295;49.452;8.466;2022-09-03T13:10:36;2.80;;;2.60;;
12459;SDS011;6295;49.452;8.466;2022-09-03T13:14:43;3.30;;;3.00;;
12459;SDS011;6295;49.452;8.466;2022-09-03T13:18:49;3.00;;;2.80;;
12459;SDS011;6295;49.452;8.466;2022-09-03T13:27:26;3.40;;;3.07;;
12459;SDS011;6295;49.452;8.466;2022-09-03T13:31:35;3.40;;;3.17;;
12459;SDS011;6295;49.452;8.466;2022-09-03T13:35:44;4.00;;;3.70;;
12459;SDS011;6295;49.452;8.466;2022-09-03T13:39:51;4.43;;;4.03;;
12459;SDS011;6295;49.452;8.466;2022-09-03T13:43:57;4.20;;;3.90;;
12459;SDS011;6295;49.452;8.466;2022-09-03T13:48:09;4.27;;;3.90;;
12459;SDS011;6295;49.452;8.466;2022-09-03T13:52:33;4.60;;;4.30;;
12459;SDS011;6295;49.452;8.466;2022-09-03T13:56:48;4.87;;;4.43;;
12459;SDS011;6295;49.452;8.466;2022-09-03T14:01:03;5.03;;;4.63;;
12459;SDS011;6295;49.452;8.466;2022-09-03T14:05:15;4.50;;;4.17;;
12459;SDS011;6295;49.452;8.466;2022-09-03T14:09:26;4.77;;;4.37;;
12459;SDS011;6295;49.452;8.466;2022-09-03T14:13:38;5.67;;;4.70;;
12459;SDS011;6295;49.452;8.466;2022-09-03T14:17:51;5.00;;;4.60;;
12459;SDS011;6295;49.452;8.466;2022-09-03T14:22:04;5.40;;;4.93;;
12459;SDS011;6295;49.452;8.466;2022-09-03T14:26:15;5.17;;;4.77;;
12459;SDS011;6295;49.452;8.466;2022-09-03T14:30:32;4.87;;;4.50;;
12459;SDS011;6295;49.452;8.466;2022-09-03T14:34:49;4.37;;;4.07;;
12459;SDS011;6295;49.452;8.466;2022-09-03T14:39:05;4.43;;;4.13;;
12459;SDS011;6295;49.452;8.466;2022-09-03T14:43:27;4.30;;;4.00;;
12459;SDS011;6295;49.452;8.466;2022-09-03T14:47:44;4.43;;;4.03;;
12459;SDS011;6295;49.452;8.466;2022-09-03T14:51:53;4.70;;;4.30;;
12459;SDS011;6295;49.452;8.466;2022-09-03T14:56:10;5.67;;;5.07;;
12459;SDS011;6295;49.452;8.466;2022-09-03T15:00:24;5.07;;;4.67;;
12459;SDS011;6295;49.452;8.466;2022-09-03T15:04:50;4.70;;;4.30;;
12459;SDS011;6295;49.452;8.466;2022-09-03T15:09:10;4.93;;;4.50;;
12459;SDS011;6295;49.452;8.466;2022-09-03T15:13:31;4.50;;;4.10;;
12459;SDS011;6295;49.452;8.466;2022-09-03T15:17:41;4.33;;;4.03;;
12459;SDS011;6295;49.452;8.466;2022-09-03T15:21:55;4.40;;;4.00;;
12459;SDS011;6295;49.452;8.466;2022-09-03T15:26:27;3.50;;;3.30;;
12459;SDS011;6295;49.452;8.466;2022-09-03T15:31:00;3.73;;;3.33;;
12459;SDS011;6295;49.452;8.466;2022-09-03T15:35:14;6.30;;;3.80;;
12459;SDS011;6295;49.452;8.466;2022-09-03T15:39:33;3.90;;;3.60;;
12459;SDS011;6295;49.452;8.466;2022-09-03T15:43:37;3.90;;;3.60;;
12459;SDS011;6295;49.452;8.466;2022-09-03T15:47:49;3.63;;;3.33;;
12459;SDS011;6295;49.452;8.466;2022-09-03T15:56:26;3.70;;;3.40;;
12459;SDS011;6295;49.452;8.466;2022-09-03T16:00:49;3.60;;;3.30;;
12459;SDS011;6295;49.452;8.466;2022-09-03T16:05:04;3.50;;;3.20;;
12459;SDS011;6295;49.452;8.466;2022-09-03T16:13:52;3.33;;;3.03;;
12459;SDS011;6295;49.452;8.466;2022-09-03T16:18:03;3.20;;;3.00;;
12459;SDS011;6295;49.452;8.466;2022-09-03T16:22:13;3.27;;;3.07;;
12459;SDS011;6295;49.452;8.466;2022-09-03T16:26:17;3.60;;;3.30;;
12459;SDS011;6295;49.452;8.466;2022-09-03T16:30:36;4.00;;;3.67;;
12459;SDS011;6295;49.452;8.466;2022-09-03T16:34:53;4.40;;;4.03;;
12459;SDS011;6295;49.452;8.466;2022-09-03T16:39:11;4.60;;;4.30;;
12459;SDS011;6295;49.452;8.466;2022-09-03T16:43:23;4.30;;;3.90;;
12459;SDS011;6295;49.452;8.466;2022-09-03T16:47:32;4.20;;;3.80;;
12459;SDS011;6295;49.452;8.466;2022-09-03T16:51:46;3.90;;;3.60;;
12459;SDS011;6295;49.452;8.466;2022-09-03T16:56:03;3.93;;;3.63;;
12459;SDS011;6295;49.452;8.466;2022-09-03T17:00:23;4.20;;;3.80;;
12459;SDS011;6295;49.452;8.466;2022-09-03T17:04:49;4.30;;;4.00;;
12459;SDS011;6295;49.452;8.466;2022-09-03T17:09:13;4.40;;;4.00;;
12459;SDS011;6295;49.452;8.466;2022-09-03T17:18:11;4.53;;;4.13;;
12459;SDS011;6295;49.452;8.466;2022-09-03T17:22:32;4.90;;;4.50;;
12459;SDS011;6295;49.452;8.466;2022-09-03T17:26:42;4.77;;;4.37;;
12459;SDS011;6295;49.452;8.466;2022-09-03T17:30:51;3.93;;;3.63;;
12459;SDS011;6295;49.452;8.466;2022-09-03T17:35:02;4.63;;;4.23;;
12459;SDS011;6295;49.452;8.466;2022-09-03T17:39:24;5.07;;;4.60;;
12459;SDS011;6295;49.452;8.466;2022-09-03T17:43:40;4.37;;;4.00;;
12459;SDS011;6295;49.452;8.466;2022-09-03T17:48:01;4.23;;;3.93;;
12459;SDS011;6295;49.452;8.466;2022-09-03T17:52:25;4.80;;;4.30;;
12459;SDS011;6295;49.452;8.466;2022-09-03T17:56:33;4.80;;;4.30;;
12459;SDS011;6295;49.452;8.466;2022-09-03T18:00:48;4.60;;;4.20;;
12459;SDS011;6295;49.452;8.466;2022-09-03T18:04:56;4.70;;;4.30;;
12459;SDS011;6295;49.452;8.466;2022-09-03T18:09:06;4.67;;;4.27;;
12459;SDS011;6295;49.452;8.466;2022-09-03T18:13:24;4.80;;;4.40;;
12459;SDS011;6295;49.452;8.466;2022-09-03T18:17:34;5.40;;;4.63;;
12459;SDS011;6295;49.452;8.466;2022-09-03T18:21:38;4.77;;;4.37;;
12459;SDS011;6295;49.452;8.466;2022-09-03T18:26:00;5.23;;;4.73;;
12459;SDS011;6295;49.452;8.466;2022-09-03T18:30:21;5.00;;;4.60;;
12459;SDS011;6295;49.452;8.466;2022-09-03T18:34:41;4.53;;;4.13;;
12459;SDS011;6295;49.452;8.466;2022-09-03T18:39:13;4.93;;;4.50;;
12459;SDS011;6295;49.452;8.466;2022-09-03T18:43:36;4.97;;;4.57;;
12459;SDS011;6295;49.452;8.466;2022-09-03T18:48:06;4.93;;;4.53;;
12459;SDS011;6295;49.452;8.466;2022-09-03T18:52:31;5.20;;;4.70;;
12459;SDS011;6295;49.452;8.466;2022-09-03T18:56:59;4.90;;;4.50;;
12459;SDS011;6295;49.452;8.466;2022-09-03T19:01:27;5.03;;;4.53;;
12459;SDS011;6295;49.452;8.466;2022-09-03T19:05:53;4.70;;;4.30;;
12459;SDS011;6295;49.452;8.466;2022-09-03T19:10:23;5.57;;;4.70;;
12459;SDS011;6295;49.452;8.466;2022-09-03T19:14:47;5.23;;;4.83;;
12459;SDS011;6295;49.452;8.466;2022-09-03T19:19:19;5.17;;;4.53;;
12459;SDS011;6295;49.452;8.466;2022-09-03T19:23:50;4.97;;;4.57;;
12459;SDS011;6295;49.452;8.466;2022-09-03T19:28:16;5.13;;;4.73;;
12459;SDS011;6295;49.452;8.466;2022-09-03T19:32:39;5.10;;;4.70;;
12459;SDS011;6295;49.452;8.466;2022-09-03T19:37:12;5.10;;;4.70;;
12459;SDS011;6295;49.452;8.466;2022-09-03T19:41:37;4.70;;;4.30;;
12459;SDS011;6295;49.452;8.466;2022-09-03T19:46:04;5.07;;;4.60;;
12459;SDS011;6295;49.452;8.466;2022-09-03T19:50:29;5.60;;;5.00;;
12459;SDS011;6295;49.452;8.466;2022-09-03T19:54:56;5.40;;;4.90;;
12459;SDS011;6295;49.452;8.466;2022-09-03T19:59:17;5.03;;;4.63;;
12459;SDS011;6295;49.452;8.466;2022-09-03T20:03:37;5.30;;;4.90;;
12459;SDS011;6295;49.452;8.466;2022-09-03T20:07:57;4.80;;;4.40;;
12459;SDS011;6295;49.452;8.466;2022-09-03T20:12:19;4.83;;;4.43;;
12459;SDS011;6295;49.452;8.466;2022-09-03T20:16:26;4.53;;;4.13;;
12459;SDS011;6295;49.452;8.466;2022-09-03T20:20:34;4.87;;;4.47;;
12459;SDS011;6295;49.452;8.466;2022-09-03T20:24:44;6.00;;;4.90;;
12459;SDS011;6295;49.452;8.466;2022-09-03T20:29:06;5.20;;;4.80;;
12459;SDS011;6295;49.452;8.466;2022-09-03T20:33:25;5.77;;;5.10;;
12459;SDS011;6295;49.452;8.466;2022-09-03T20:37:39;5.27;;;4.87;;
12459;SDS011;6295;49.452;8.466;2022-09-03T20:41:48;5.63;;;5.13;;
12459;SDS011;6295;49.452;8.466;2022-09-03T20:45:59;6.37;;;5.30;;
12459;SDS011;6295;49.452;8.466;2022-09-03T20:50:09;5.47;;;5.00;;
12459;SDS011;6295;49.452;8.466;2022-09-03T20:54:22;6.50;;;5.60;;
12459;SDS011;6295;49.452;8.466;2022-09-03T20:58:31;6.00;;;5.50;;
12459;SDS011;6295;49.452;8.466;2022-09-03T21:02:45;6.10;;;5.47;;
12459;SDS011;6295;49.452;8.466;2022-09-03T21:07:10;6.23;;;5.60;;
12459;SDS011;6295;49.452;8.466;2022-09-03T21:11:24;6.47;;;5.87;;
12459;SDS011;6295;49.452;8.466;2022-09-03T21:15:37;6.03;;;5.40;;
12459;SDS011;6295;49.452;8.466;2022-09-03T21:19:46;6.53;;;5.80;;
12459;SDS011;6295;49.452;8.466;2022-09-03T21:23:56;6.03;;;5.43;;
12459;SDS011;6295;49.452;8.466;2022-09-03T21:28:05;5.73;;;5.23;;
12459;SDS011;6295;49.452;8.466;2022-09-03T21:32:13;6.00;;;5.50;;
12459;SDS011;6295;49.452;8.466;2022-09-03T21:36:23;6.83;;;5.30;;
12459;SDS011;6295;49.452;8.466;2022-09-03T21:40:29;6.50;;;5.90;;
12459;SDS011;6295;49.452;8.466;2022-09-03T21:44:40;6.20;;;5.70;;
12459;SDS011;6295;49.452;8.466;2022-09-03T21:48:48;8.00;;;6.27;;
12459;SDS011;6295;49.452;8.466;2022-09-03T21:52:57;7.57;;;6.90;;
12459;SDS011;6295;49.452;8.466;2022-09-03T21:57:06;7.57;;;6.87;;
12459;SDS011;6295;49.452;8.466;2022-09-03T22:01:13;8.00;;;7.27;;
12459;SDS011;6295;49.452;8.466;2022-09-03T22:05:21;8.63;;;7.83;;
12459;SDS011;6295;49.452;8.466;2022-09-03T22:09:27;9.27;;;8.37;;
12459;SDS011;6295;49.452;8.466;2022-09-03T22:13:34;7.43;;;6.73;;
12459;SDS011;6295;49.452;8.466;2022-09-03T22:17:46;8.20;;;7.40;;
12459;SDS011;6295;49.452;8.466;2022-09-03T22:21:54;7.67;;;6.97;;
12459;SDS011;6295;49.452;8.466;2022-09-03T22:26:00;7.70;;;7.00;;
12459;SDS011;6295;49.452;8.466;2022-09-03T22:30:10;7.27;;;6.57;;
12459;SDS011;6295;49.452;8.466;2022-09-03T22:34:25;7.03;;;6.43;;
12459;SDS011;6295;49.452;8.466;2022-09-03T22:43:14;7.17;;;6.57;;
12459;SDS011;6295;49.452;8.466;2022-09-03T22:47:21;7.00;;;6.30;;
12459;SDS011;6295;49.452;8.466;2022-09-03T22:51:40;7.20;;;6.60;;
12459;SDS011;6295;49.452;8.466;2022-09-03T22:55:57;7.13;;;6.43;;
12459;SDS011;6295;49.452;8.466;2022-09-03T23:00:07;6.53;;;6.03;;
12459;SDS011;6295;49.452;8.466;2022-09-03T23:04:12;6.90;;;6.30;;
12459;SDS011;6295;49.452;8.466;2022-09-03T23:08:21;6.43;;;5.93;;
12459;SDS011;6295;49.452;8.466;2022-09-03T23:12:30;6.93;;;6.00;;
12459;SDS011;6295;49.452;8.466;2022-09-03T23:16:37;7.93;;;6.53;;
12459;SDS011;6295;49.452;8.466;2022-09-03T23:20:42;6.10;;;5.60;;
12459;SDS011;6295;49.452;8.466;2022-09-03T23:24:48;6.90;;;6.13;;
12459;SDS011;6295;49.452;8.466;2022-09-03T23:28:56;6.37;;;5.87;;
12459;SDS011;6295;49.452;8.466;2022-09-03T23:33:04;7.30;;;6.60;;
12459;SDS011;6295;49.452;8.466;2022-09-03T23:41:37;6.97;;;6.20;;
12459;SDS011;6295;49.452;8.466;2022-09-03T23:45:47;6.40;;;5.73;;
12459;SDS011;6295;49.452;8.466;2022-09-03T23:50:02;6.17;;;5.57;;
12459;SDS011;6295;49.452;8.466;2022-09-03T23:54:15;6.50;;;5.77;;
12459;SDS011;6295;49.452;8.466;2022-09-03T23:58:27;7.20;;;6.50;;
